Aérodrome :
LOGIN :

S'inscrire | Disclaimer

   EN    FR    IT 

 










Légende :    VFR   VFR Marginal   IFR   IFR Intensif   IFR Très Intensif
Visi : 
Plafond : 
>= 8 km
>= 3000ft
5 à 8 km
1000 à 3000 ft
1500m à 5 km
500 à 1000 ft
800 à 1500m
200 à 500 ft
< 800m
< 200 ft
Symboles :   Orages  Brouillard  Fortes neiges  Fortes précipitations  Vent > 20 kt
SIGMETs :   Divers  Orages  Givrage  Turbulence  Onde Orograph.  Cendres Volcan.






- Altitude de l'aérodrome : 408 ft
- Code IATA : SOB


LHSM - Sarmellek Balaton

DERNIER METAR :
  • 231915Z AUTO 13006KT 060V170 CAVOK 12/05 Q1000 NOSIG

METARs EXPIRÉS :
  • 231845Z AUTO 14007KT 110V170 CAVOK 12/05 Q1000 NOSIG
  • 231815Z AUTO 13008KT 100V160 CAVOK 12/05 Q1000 NOSIG
  • 231745Z AUTO 14010KT CAVOK 12/05 Q1000 NOSIG
  • 231715Z AUTO 15010KT CAVOK 12/05 Q1001 NOSIG
  • 231645Z AUTO 15011KT CAVOK 12/05 Q1001 NOSIG
  • 231615Z AUTO 15011KT CAVOK 12/06 Q1001 NOSIG
  • 231545Z AUTO 15013KT CAVOK 12/06 Q1001 NOSIG
  • 231515Z AUTO 14010KT 110V170 CAVOK 12/06 Q1001 NOSIG

TAF TAF LHSM
Valide du 23 à 15h jusqu'au 24 à 00h UTC


231415Z 2315/2324 16010KT CAVOK



MET'MAP, la Météo Aéronautique d'un coup d'oeil ! - Copyright ORBIFLY Décembre 2007 - Disclaimer

ORBIFLY MET'MAP TEAM :

Programmation & Développement : Alexandra Zaïnal
Sur une idée originale de : Baudouin d'Aumeries
Soutien technique & logistique : Manuel Goepfert
Assistance : Marc-Olivier Méhu




SOURCES & CREDITS :

   NOAA